Main page
METAR-TAF:

METAR-TAF

Airports :

Hat Yai International Airport

Hat Yai, Thailand

latitude: 06-55N, longitude: 100-26E, elevation: 27 m

Current weather observation

The report was made 41 minutes ago, at 12:30 UTC
Wind 9 kt from the Northeast
Temperature 27°C
Humidity 74%
Pressure 1009 hPa
Visibility 10 km or more
Few clouds at a height of 2000 ft

METAR: VTSS 291230Z 05009KT 9999 FEW020 27/22 Q1009 NOSIG

Time: 20:11 (13:11 UTC)

Forecast

The report was made 2 hours and 11 minutes ago, at 11:00 UTC
Forecast valid from 29 at 12 UTC to 01 at 12 UTC
Wind 10 kt from the Northeast
Visibility 10 km or more
Few clouds at a height of 2000 ft

TAF: VTSS 291100Z 2912/0112 05010KT 9999 FEW020

Weather observations and forecasts of more than 4000 airports (METAR and TAF reports).

The available stations are represented by yellow and red dots on the map.

Hover mouse over dot to see the name of the station.

Then click to see weather observations and forecasts.

To change the map : click on the green buttons with a black cross to zoom in, on the green button with a dash to zoom out, or on the green arrows for adjacent maps.


METAR-TAF: